createdAt,value
2023-01-10T00:00:59.637Z,18.20
2023-01-10T00:03:52.397Z,17.50
2023-01-10T00:06:33.974Z,18.40
2023-01-10T00:09:27.121Z,17.80
2023-01-10T00:12:37.294Z,16.40
2023-01-10T00:15:30.387Z,17.30
2023-01-10T00:18:22.776Z,19.50
2023-01-10T00:21:17.049Z,17.30
2023-01-10T00:24:18.978Z,16.90
2023-01-10T00:27:12.815Z,16.40
2023-01-10T00:30:13.995Z,15.20
2023-01-10T00:33:07.765Z,14.50
2023-01-10T00:36:01.790Z,14.50
2023-01-10T00:38:54.637Z,16.80
2023-01-10T00:42:10.461Z,16.40
2023-01-10T00:45:04.350Z,21.20
2023-01-10T00:47:57.552Z,30.50
2023-01-10T00:50:51.196Z,23.20
2023-01-10T00:53:44.144Z,25.70
2023-01-10T00:56:37.254Z,25.70
2023-01-10T00:59:22.877Z,25.80
2023-01-10T01:02:16.202Z,26.10
2023-01-10T01:05:10.350Z,38.40
2023-01-10T01:08:03.397Z,49.70
2023-01-10T01:10:56.270Z,56.10
2023-01-10T01:13:49.136Z,50.90
2023-01-10T01:16:41.895Z,42.20
2023-01-10T01:19:34.964Z,28.00
2023-01-10T01:22:28.460Z,23.50
2023-01-10T01:25:21.792Z,24.70
2023-01-10T01:28:15.339Z,24.40
2023-01-10T01:31:12.091Z,28.10
2023-01-10T01:34:05.406Z,28.50
2023-01-10T01:36:58.601Z,32.40
2023-01-10T01:39:46.649Z,34.00
2023-01-10T01:42:39.837Z,32.70
2023-01-10T01:45:41.414Z,35.60
2023-01-10T01:48:38.870Z,35.80
2023-01-10T01:51:35.623Z,37.30
2023-01-10T01:54:28.053Z,38.20
2023-01-10T01:57:26.243Z,42.30
2023-01-10T02:03:20.438Z,37.60
2023-01-10T02:06:13.898Z,38.30
2023-01-10T02:09:14.595Z,41.30
2023-01-10T02:12:01.665Z,40.70
2023-01-10T02:14:55.480Z,39.90
2023-01-10T02:17:52.908Z,36.90
2023-01-10T02:20:59.061Z,39.30
2023-01-10T02:24:29.633Z,38.20
2023-01-10T02:27:35.967Z,39.20
2023-01-10T02:31:01.282Z,35.70
2023-01-10T02:34:03.861Z,37.20
2023-01-10T02:37:06.969Z,37.10
2023-01-10T02:40:22.345Z,36.90
2023-01-10T02:43:19.620Z,41.20
2023-01-10T02:46:16.986Z,39.10
2023-01-10T02:49:10.563Z,38.40
2023-01-10T02:52:04.115Z,38.60
2023-01-10T02:55:00.829Z,34.40
2023-01-10T02:58:08.923Z,35.40
2023-01-10T03:01:13.846Z,34.70
2023-01-10T03:04:19.766Z,34.90
2023-01-10T03:07:21.731Z,36.20
2023-01-10T03:10:21.664Z,35.00
2023-01-10T03:13:20.894Z,33.70
2023-01-10T03:16:18.802Z,36.70
2023-01-10T03:19:15.278Z,34.00
2023-01-10T03:22:12.139Z,37.00
2023-01-10T03:25:08.932Z,33.90
2023-01-10T03:28:07.279Z,33.90
2023-01-10T03:31:05.788Z,32.70
2023-01-10T03:33:59.356Z,35.10
2023-01-10T03:36:59.547Z,31.90
2023-01-10T03:40:02.428Z,32.60
2023-01-10T03:43:20.345Z,34.80
2023-01-10T03:46:17.853Z,36.00
2023-01-10T03:49:13.931Z,33.80
2023-01-10T03:52:02.129Z,33.90
2023-01-10T03:55:06.001Z,34.20
2023-01-10T03:57:51.642Z,35.60
2023-01-10T04:00:44.639Z,36.90
2023-01-10T04:03:26.486Z,34.40
2023-01-10T04:06:20.442Z,34.60
2023-01-10T04:09:13.951Z,36.40
2023-01-10T04:12:07.429Z,34.70
2023-01-10T04:15:01.640Z,36.10
2023-01-10T04:17:50.992Z,37.60
2023-01-10T04:20:44.035Z,38.70
2023-01-10T04:23:37.091Z,37.10
2023-01-10T04:26:30.299Z,35.10
2023-01-10T04:29:23.344Z,38.20
2023-01-10T04:32:04.977Z,36.70
2023-01-10T04:34:59.171Z,39.80
2023-01-10T04:37:52.427Z,35.70
2023-01-10T04:40:46.434Z,35.20
2023-01-10T04:43:39.577Z,37.20
2023-01-10T04:46:34.166Z,36.60
2023-01-10T04:49:27.144Z,35.10
2023-01-10T04:52:21.168Z,34.70
2023-01-10T04:55:14.294Z,31.30
2023-01-10T04:58:08.741Z,33.40
2023-01-10T05:01:01.678Z,32.90
2023-01-10T05:03:56.974Z,32.30
2023-01-10T05:06:49.853Z,32.30
2023-01-10T05:09:45.121Z,33.20
2023-01-10T05:12:38.172Z,32.50
2023-01-10T05:15:32.371Z,31.60
2023-01-10T05:18:24.204Z,32.80
2023-01-10T05:21:19.536Z,30.00
2023-01-10T05:24:13.264Z,30.40
2023-01-10T05:27:07.993Z,28.60
2023-01-10T05:30:00.871Z,38.00
2023-01-10T05:32:51.318Z,42.50
2023-01-10T05:35:45.533Z,38.00
2023-01-10T05:38:37.352Z,38.00
2023-01-10T05:41:30.574Z,34.10
2023-01-10T05:44:23.803Z,33.70
2023-01-10T05:47:37.236Z,31.50
2023-01-10T05:50:23.585Z,32.20
2023-01-10T05:53:16.880Z,32.40
2023-01-10T05:56:12.674Z,34.50
2023-01-10T05:59:14.029Z,33.00
2023-01-10T06:02:10.878Z,36.00
2023-01-10T06:05:03.757Z,33.40
2023-01-10T06:07:56.661Z,34.00
2023-01-10T06:10:49.754Z,33.20
2023-01-10T06:13:41.103Z,37.00
2023-01-10T06:16:34.170Z,34.20
2023-01-10T06:19:31.355Z,36.60
2023-01-10T06:22:24.418Z,35.50
2023-01-10T06:25:18.573Z,32.90
2023-01-10T06:28:12.700Z,35.30
2023-01-10T06:31:06.762Z,38.90
2023-01-10T06:33:54.858Z,40.20
2023-01-10T06:36:48.367Z,40.70
2023-01-10T06:39:41.545Z,38.50
2023-01-10T06:42:14.859Z,35.60
2023-01-10T06:45:09.423Z,34.80
2023-01-10T06:48:05.609Z,33.50
2023-01-10T06:50:58.533Z,34.10
2023-01-10T06:53:51.483Z,33.20
2023-01-10T06:57:04.416Z,35.40
2023-01-10T06:59:58.404Z,35.50
2023-01-10T07:02:49.938Z,34.60
2023-01-10T07:05:44.185Z,34.10
2023-01-10T07:08:29.846Z,33.90
2023-01-10T07:11:22.574Z,34.80
2023-01-10T07:13:58.805Z,33.30
2023-01-10T07:16:51.835Z,30.80
2023-01-10T07:19:45.717Z,30.70
2023-01-10T07:22:38.742Z,30.80
2023-01-10T07:25:15.151Z,28.00
2023-01-10T07:28:09.880Z,27.40
2023-01-10T07:31:04.224Z,29.00
2023-01-10T07:33:52.088Z,26.90
2023-01-10T07:36:44.847Z,26.40
2023-01-10T07:39:38.254Z,25.00
2023-01-10T07:42:31.126Z,25.00
2023-01-10T07:45:24.812Z,22.30
2023-01-10T07:48:18.249Z,23.80
2023-01-10T07:51:12.720Z,27.00
2023-01-10T07:54:06.379Z,26.10
2023-01-10T07:56:57.774Z,22.00
2023-01-10T07:59:50.868Z,20.30
2023-01-10T08:02:44.530Z,19.90
2023-01-10T08:05:37.554Z,21.80
2023-01-10T08:08:30.657Z,20.30
2023-01-10T08:11:23.612Z,21.90
2023-01-10T08:14:19.536Z,20.10
2023-01-10T08:17:12.451Z,20.00
2023-01-10T08:20:08.111Z,21.80
2023-01-10T08:23:01.833Z,22.10
2023-01-10T08:25:56.163Z,19.10
2023-01-10T08:28:48.995Z,18.70
2023-01-10T08:31:44.253Z,17.70
2023-01-10T08:34:37.324Z,17.60
2023-01-10T08:37:31.365Z,17.90
2023-01-10T08:40:24.439Z,19.10
2023-01-10T08:43:19.156Z,19.20
2023-01-10T08:46:12.057Z,19.00
2023-01-10T08:49:05.963Z,23.20
2023-01-10T08:51:59.119Z,19.10
2023-01-10T08:54:52.567Z,20.80
2023-01-10T08:57:45.753Z,18.80
2023-01-10T09:00:37.595Z,19.00
2023-01-10T09:03:30.539Z,19.40
2023-01-10T09:06:24.249Z,20.70
2023-01-10T09:09:17.166Z,19.90
2023-01-10T09:12:24.223Z,20.00
2023-01-10T09:15:17.157Z,20.50
2023-01-10T09:18:12.716Z,18.60
2023-01-10T09:21:05.855Z,19.00
2023-01-10T09:23:59.077Z,21.60
2023-01-10T09:26:52.017Z,23.80
2023-01-10T09:29:37.393Z,25.40
2023-01-10T09:32:33.249Z,23.40
2023-01-10T09:35:27.241Z,20.70
2023-01-10T09:38:16.182Z,21.80
2023-01-10T09:41:49.085Z,23.20
2023-01-10T09:44:51.847Z,23.00
2023-01-10T09:47:54.338Z,23.90
2023-01-10T09:51:02.127Z,22.00
2023-01-10T09:54:11.049Z,21.20
2023-01-10T09:57:06.179Z,21.00
2023-01-10T10:00:01.482Z,17.80
2023-01-10T10:02:57.039Z,19.20
2023-01-10T10:05:54.107Z,19.00
2023-01-10T10:08:43.425Z,18.30
2023-01-10T10:11:53.841Z,18.80
2023-01-10T10:14:53.930Z,19.00
2023-01-10T10:17:53.493Z,17.90
2023-01-10T10:20:58.862Z,17.90
2023-01-10T10:24:19.879Z,15.90
2023-01-10T10:27:23.008Z,15.60
2023-01-10T10:30:37.759Z,13.20
2023-01-10T10:33:41.828Z,14.80
2023-01-10T10:36:44.516Z,14.00
2023-01-10T10:39:38.502Z,13.00
2023-01-10T10:42:18.114Z,12.90
2023-01-10T10:45:39.815Z,12.50
2023-01-10T10:48:37.969Z,12.50
2023-01-10T10:51:44.550Z,12.30
2023-01-10T10:54:38.597Z,13.90
2023-01-10T10:57:34.026Z,11.10
2023-01-10T11:03:26.616Z,11.20
2023-01-10T11:06:20.875Z,13.40
2023-01-10T11:09:14.599Z,14.80
2023-01-10T11:12:15.152Z,13.80
2023-01-10T11:14:50.217Z,14.40
2023-01-10T11:17:44.471Z,14.00
2023-01-10T11:20:37.945Z,13.50
2023-01-10T11:23:43.210Z,15.00
2023-01-10T11:26:41.288Z,14.10
2023-01-10T11:32:16.911Z,16.50
2023-01-10T11:35:18.968Z,20.50
2023-01-10T11:38:25.501Z,21.50
2023-01-10T11:41:34.243Z,15.90
2023-01-10T11:44:29.466Z,16.80
2023-01-10T11:47:22.869Z,16.20
2023-01-10T11:50:23.421Z,16.60
2023-01-10T11:53:44.457Z,21.20
2023-01-10T11:57:06.048Z,24.50
2023-01-10T12:00:02.683Z,35.10
2023-01-10T12:02:55.553Z,35.00
2023-01-10T12:05:55.833Z,22.20
2023-01-10T12:08:52.783Z,19.60
2023-01-10T12:11:45.627Z,18.60
2023-01-10T12:14:38.385Z,22.00
2023-01-10T12:17:33.397Z,16.80
2023-01-10T12:20:27.697Z,15.50
2023-01-10T12:23:23.243Z,15.70
2023-01-10T12:26:17.349Z,17.30
2023-01-10T12:29:17.615Z,16.70
2023-01-10T12:32:05.159Z,14.70
2023-01-10T12:34:53.530Z,13.80
2023-01-10T12:40:45.514Z,16.00
2023-01-10T12:43:56.765Z,21.70
2023-01-10T12:47:06.479Z,23.10
2023-01-10T12:50:00.454Z,28.80
2023-01-10T12:52:56.526Z,30.60
2023-01-10T12:55:50.190Z,30.80
2023-01-10T12:58:47.229Z,25.20
2023-01-10T13:01:35.225Z,23.40
2023-01-10T13:04:30.614Z,25.10
2023-01-10T13:07:25.647Z,26.20
2023-01-10T13:10:03.803Z,18.10
2023-01-10T13:13:03.158Z,22.00
2023-01-10T13:16:05.522Z,20.60
2023-01-10T13:19:24.777Z,22.10
2023-01-10T13:22:24.125Z,32.40
2023-01-10T13:25:25.523Z,26.60
2023-01-10T13:28:24.290Z,23.40
2023-01-10T13:31:27.897Z,19.70
2023-01-10T13:34:22.539Z,19.20
2023-01-10T13:37:23.681Z,24.10
2023-01-10T13:40:27.527Z,24.00
2023-01-10T13:43:38.360Z,20.70
2023-01-10T13:46:42.886Z,21.70
2023-01-10T13:49:52.260Z,22.80
2023-01-10T13:52:44.907Z,25.90
2023-01-10T13:55:56.831Z,23.70
2023-01-10T13:59:06.864Z,20.20
2023-01-10T14:02:17.227Z,18.30
2023-01-10T14:05:17.717Z,23.20
2023-01-10T14:07:51.845Z,18.70
2023-01-10T14:10:44.686Z,21.70
2023-01-10T14:13:38.006Z,22.70
2023-01-10T14:16:37.947Z,27.70
2023-01-10T14:19:34.207Z,65.50
2023-01-10T14:22:31.750Z,62.40
2023-01-10T14:25:23.158Z,52.50
2023-01-10T14:28:25.126Z,51.80
2023-01-10T14:31:19.964Z,46.80
2023-01-10T14:34:22.589Z,32.80
2023-01-10T14:37:20.641Z,37.60
2023-01-10T14:40:31.098Z,33.30
2023-01-10T14:43:28.586Z,32.10
2023-01-10T14:46:27.357Z,47.40
2023-01-10T14:49:28.049Z,41.50
2023-01-10T14:52:20.750Z,39.10
2023-01-10T14:55:16.815Z,37.30
2023-01-10T14:58:18.452Z,37.20
2023-01-10T15:01:13.328Z,31.20
2023-01-10T15:03:58.660Z,29.80
2023-01-10T15:07:03.152Z,32.80
2023-01-10T15:09:58.226Z,32.40
2023-01-10T15:15:38.581Z,30.80
2023-01-10T15:18:38.752Z,27.00
2023-01-10T15:21:32.065Z,24.40
2023-01-10T15:24:33.157Z,21.00
2023-01-10T15:27:26.133Z,21.70
2023-01-10T15:30:19.895Z,19.90
2023-01-10T15:32:59.468Z,22.80
2023-01-10T15:35:36.759Z,20.40
2023-01-10T15:38:34.178Z,19.60
2023-01-10T15:41:26.772Z,26.60
2023-01-10T15:44:38.343Z,24.90
2023-01-10T15:47:40.168Z,19.80
2023-01-10T15:50:38.797Z,23.20
2023-01-10T15:54:05.642Z,31.10
2023-01-10T15:56:53.717Z,28.00
2023-01-10T15:59:44.817Z,28.50
2023-01-10T16:02:37.980Z,26.70
2023-01-10T16:05:31.256Z,30.60
2023-01-10T16:08:28.045Z,26.20
2023-01-10T16:11:39.689Z,21.00
2023-01-10T16:14:33.668Z,23.00
2023-01-10T16:17:26.553Z,26.20
2023-01-10T16:20:21.495Z,22.50
2023-01-10T16:23:19.561Z,20.10
2023-01-10T16:26:08.546Z,23.10
2023-01-10T16:28:54.962Z,22.80
2023-01-10T16:31:30.464Z,26.90
2023-01-10T16:34:08.565Z,20.10
2023-01-10T16:36:44.367Z,19.20
2023-01-10T16:39:30.691Z,21.70
2023-01-10T16:42:40.757Z,20.80
2023-01-10T16:45:27.405Z,20.00
2023-01-10T16:48:00.049Z,19.60
2023-01-10T16:50:38.030Z,22.70
2023-01-10T16:56:13.561Z,26.20
2023-01-10T16:59:07.619Z,23.40
2023-01-10T17:01:55.879Z,23.30
2023-01-10T17:04:42.468Z,22.80
2023-01-10T17:07:35.425Z,22.00
2023-01-10T17:10:22.059Z,24.70
2023-01-10T17:13:16.359Z,25.00
2023-01-10T17:16:02.920Z,20.80
2023-01-10T17:18:49.811Z,20.40
2023-01-10T17:21:35.142Z,22.30
2023-01-10T17:24:27.182Z,21.20
2023-01-10T17:27:20.048Z,20.10
2023-01-10T17:30:15.598Z,22.00
2023-01-10T17:33:01.177Z,20.30
2023-01-10T17:35:56.486Z,21.10
2023-01-10T17:38:30.247Z,23.10
2023-01-10T17:41:12.286Z,22.80
2023-01-10T17:44:05.519Z,22.30
2023-01-10T17:46:58.295Z,21.40
2023-01-10T17:49:46.893Z,21.40
2023-01-10T17:52:39.761Z,19.50
2023-01-10T17:55:34.219Z,20.00
2023-01-10T17:58:27.047Z,27.80
2023-01-10T18:03:57.717Z,18.50
2023-01-10T18:06:52.165Z,18.20
2023-01-10T18:09:45.368Z,21.70
2023-01-10T18:12:27.958Z,16.80
2023-01-10T18:15:03.289Z,21.30
2023-01-10T18:17:37.143Z,25.90
2023-01-10T18:20:23.210Z,26.10
2023-01-10T18:23:25.455Z,23.40
2023-01-10T18:26:19.832Z,21.20
2023-01-10T18:29:14.954Z,18.70
2023-01-10T18:32:08.698Z,18.80
2023-01-10T18:35:02.775Z,18.60
2023-01-10T18:37:57.446Z,19.90
2023-01-10T18:40:53.771Z,20.80
2023-01-10T18:43:46.761Z,19.40
2023-01-10T18:46:40.334Z,18.50
2023-01-10T18:49:33.507Z,26.80
2023-01-10T18:52:27.320Z,25.80
2023-01-10T18:55:14.076Z,32.50
2023-01-10T18:58:06.956Z,28.70
2023-01-10T19:00:59.969Z,29.70
2023-01-10T19:03:54.971Z,27.40
2023-01-10T19:06:47.823Z,28.30
2023-01-10T19:09:33.082Z,25.40
2023-01-10T19:12:20.401Z,23.60
2023-01-10T19:15:15.791Z,23.40
2023-01-10T19:18:09.284Z,26.20
2023-01-10T19:21:01.311Z,25.70
2023-01-10T19:23:56.694Z,27.00
2023-01-10T19:26:49.898Z,31.70
2023-01-10T19:29:46.150Z,30.50
2023-01-10T19:32:39.713Z,34.00
2023-01-10T19:35:34.495Z,31.40
2023-01-10T19:38:30.072Z,28.90
2023-01-10T19:41:22.848Z,25.70
2023-01-10T19:44:00.661Z,26.60
2023-01-10T19:46:54.745Z,26.50
2023-01-10T19:49:47.616Z,25.40
2023-01-10T19:52:41.481Z,25.10
2023-01-10T19:55:28.359Z,25.90
2023-01-10T19:58:21.210Z,25.50
2023-01-10T20:01:16.447Z,27.10
2023-01-10T20:04:08.518Z,30.50
2023-01-10T20:07:01.879Z,27.50
2023-01-10T20:09:58.482Z,27.80
2023-01-10T20:12:44.200Z,28.80
2023-01-10T20:15:37.104Z,27.30
2023-01-10T20:18:30.523Z,29.80
2023-01-10T20:21:23.818Z,31.90
2023-01-10T20:24:18.394Z,33.70
2023-01-10T20:27:11.395Z,33.50
2023-01-10T20:30:04.993Z,37.50
2023-01-10T20:32:57.892Z,36.20
2023-01-10T20:35:57.666Z,45.20
2023-01-10T20:38:53.162Z,45.70
2023-01-10T20:41:45.998Z,45.20
2023-01-10T20:44:39.138Z,41.50
2023-01-10T20:47:34.343Z,37.00
2023-01-10T20:50:19.489Z,35.70
2023-01-10T20:53:02.374Z,28.80
2023-01-10T20:56:00.048Z,31.90
2023-01-10T20:58:53.646Z,30.60
2023-01-10T21:01:46.632Z,32.60
2023-01-10T21:04:40.020Z,34.70
2023-01-10T21:07:33.428Z,33.20
2023-01-10T21:10:26.328Z,32.50
2023-01-10T21:14:05.650Z,35.80
2023-01-10T21:16:32.051Z,41.90
2023-01-10T21:19:26.159Z,36.80
2023-01-10T21:22:18.932Z,36.90
2023-01-10T21:25:13.446Z,39.70
2023-01-10T21:27:59.947Z,36.40
2023-01-10T21:30:53.976Z,35.50
2023-01-10T21:33:46.810Z,32.80
2023-01-10T21:36:38.639Z,36.10
2023-01-10T21:39:20.216Z,33.10
2023-01-10T21:42:23.277Z,34.80
2023-01-10T21:45:16.970Z,34.60
2023-01-10T21:48:10.035Z,36.80
2023-01-10T21:51:02.881Z,38.10
2023-01-10T21:53:55.745Z,35.50
2023-01-10T21:56:48.655Z,36.60
2023-01-10T21:59:41.987Z,40.90
2023-01-10T22:02:37.092Z,36.80
2023-01-10T22:05:22.836Z,42.60
2023-01-10T22:08:17.116Z,44.60
2023-01-10T22:11:11.110Z,49.10
2023-01-10T22:13:59.910Z,41.90
2023-01-10T22:16:47.101Z,41.40
2023-01-10T22:19:40.006Z,36.40
2023-01-10T22:22:32.735Z,37.70
2023-01-10T22:25:15.328Z,37.20
2023-01-10T22:28:01.518Z,37.50
2023-01-10T22:30:53.163Z,38.50
2023-01-10T22:33:38.379Z,36.40
2023-01-10T22:36:23.697Z,37.40
2023-01-10T22:39:16.624Z,35.60
2023-01-10T22:42:09.531Z,38.20
2023-01-10T22:45:20.976Z,34.70
2023-01-10T22:48:12.895Z,35.10
2023-01-10T22:51:01.435Z,33.70
2023-01-10T22:53:56.026Z,34.40
2023-01-10T22:56:49.985Z,40.50
2023-01-10T22:59:42.978Z,40.10
2023-01-10T23:02:35.998Z,36.10
2023-01-10T23:05:28.965Z,35.40
2023-01-10T23:08:15.230Z,38.40
2023-01-10T23:11:09.483Z,35.80
2023-01-10T23:13:55.045Z,36.60
2023-01-10T23:16:46.713Z,35.50
2023-01-10T23:19:39.557Z,35.90
2023-01-10T23:22:26.141Z,36.60
2023-01-10T23:25:19.238Z,37.60
2023-01-10T23:28:12.734Z,36.90
2023-01-10T23:31:06.235Z,38.80
2023-01-10T23:34:00.806Z,36.70
2023-01-10T23:36:53.597Z,37.80
2023-01-10T23:39:47.108Z,33.60
2023-01-10T23:42:38.699Z,37.30
2023-01-10T23:45:34.465Z,39.10
2023-01-10T23:48:27.640Z,40.10
2023-01-10T23:51:21.936Z,35.90
2023-01-10T23:54:15.134Z,34.30
2023-01-10T23:56:51.844Z,31.60
2023-01-10T23:59:44.901Z,33.30
